Time;durP1;ratioP1;P1;durP2;ratioP2;P2;SDS_P1;SDS_P2;PMS_P1;PMS_P2;Temp;Humidity;BMP_temperature;BMP_pressure;BME280_temperature;BME280_humidity;BME280_pressure;Samples;Min_cycle;Max_cycle;Signal;HPM_P1;HPM_P2
2023/03/20 00:01:58;;;;;;;15.50;7.23;;;8.50;99.90;;;;;;5054607;28;20176;-84
2023/03/20 00:04:24;;;;;;;14.37;7.43;;;8.50;99.90;;;;;;5054456;28;20200;-84
2023/03/20 00:06:51;;;;;;;12.03;7.57;;;8.40;99.90;;;;;;5054144;28;20168;-84
2023/03/20 00:09:17;;;;;;;10.90;6.63;;;8.40;99.90;;;;;;5054456;28;20173;-85
2023/03/20 00:11:50;;;;;;;13.57;7.20;;;8.40;99.90;;;;;;5055514;28;20227;-85
2023/03/20 00:14:19;;;;;;;12.90;7.10;;;8.50;99.90;;;;;;5054066;28;20172;-85
2023/03/20 00:16:47;;;;;;;10.50;6.57;;;8.50;99.90;;;;;;5053943;28;20168;-84
2023/03/20 00:19:19;;;;;;;11.43;7.33;;;8.40;99.90;;;;;;5054392;28;20185;-85
2023/03/20 00:21:46;;;;;;;13.73;7.27;;;8.40;99.90;;;;;;5054603;28;20168;-85
2023/03/20 00:24:12;;;;;;;13.80;6.83;;;8.30;99.90;;;;;;5054837;28;20203;-85
2023/03/20 00:26:38;;;;;;;14.30;7.33;;;8.20;99.90;;;;;;5054747;28;20180;-86
2023/03/20 00:29:06;;;;;;;12.40;6.90;;;8.30;99.90;;;;;;5053607;28;20164;-85
2023/03/20 00:31:36;;;;;;;13.70;6.83;;;8.30;99.90;;;;;;5053383;28;20609;-84
2023/03/20 00:34:05;;;;;;;12.13;7.13;;;8.30;99.90;;;;;;5053638;28;20183;-85
2023/03/20 00:36:31;;;;;;;12.77;7.13;;;8.30;99.90;;;;;;5054166;28;20190;-85
2023/03/20 00:38:57;;;;;;;11.87;6.50;;;8.50;99.90;;;;;;5053697;28;20171;-84
2023/03/20 00:41:32;;;;;;;15.63;6.63;;;8.50;99.90;;;;;;5053939;28;20176;-84
2023/03/20 00:44:02;;;;;;;13.57;7.00;;;8.70;99.90;;;;;;5052728;28;20240;-77
2023/03/20 00:46:36;;;;;;;12.87;6.87;;;8.70;99.90;;;;;;5051285;28;20536;-77
2023/03/20 00:49:02;;;;;;;14.00;7.07;;;8.90;99.90;;;;;;5052613;28;20621;-77
2023/03/20 00:51:28;;;;;;;10.57;6.47;;;9.10;99.90;;;;;;5051265;28;20203;-76
2023/03/20 00:53:53;;;;;;;10.60;6.57;;;9.20;99.90;;;;;;5051668;28;20164;-76
2023/03/20 00:56:36;;;;;;;16.07;6.87;;;9.00;99.90;;;;;;5052401;28;20255;-75
2023/03/20 00:59:03;;;;;;;14.27;6.63;;;8.90;99.90;;;;;;5052422;28;20641;-78
2023/03/20 01:01:30;;;;;;;13.83;6.50;;;8.90;99.90;;;;;;5051173;28;20164;-77
2023/03/20 01:04:01;;;;;;;16.17;7.57;;;8.90;99.90;;;;;;5051297;28;20199;-76
2023/03/20 01:06:28;;;;;;;13.33;6.77;;;8.90;99.90;;;;;;5052426;28;20609;-75
2023/03/20 01:08:56;;;;;;;13.90;6.73;;;9.00;99.90;;;;;;5052412;28;20621;-76
2023/03/20 01:11:23;;;;;;;11.67;6.17;;;9.10;99.90;;;;;;5052255;28;20148;-75
2023/03/20 01:13:51;;;;;;;12.30;7.20;;;8.90;99.90;;;;;;5050882;28;20513;-74
2023/03/20 01:16:23;;;;;;;14.10;6.80;;;8.80;99.90;;;;;;5050823;28;20175;-75
2023/03/20 01:18:50;;;;;;;12.60;7.30;;;8.80;99.90;;;;;;5050969;28;20218;-75
2023/03/20 01:21:16;;;;;;;10.63;6.50;;;8.80;99.90;;;;;;5052212;28;20168;-75
2023/03/20 01:23:45;;;;;;;14.10;7.37;;;8.90;99.90;;;;;;5051017;28;20679;-75
2023/03/20 01:26:26;;;;;;;12.10;6.80;;;9.10;99.90;;;;;;5050940;28;20645;-75
2023/03/20 01:28:52;;;;;;;13.03;6.80;;;9.20;99.90;;;;;;5052738;28;20164;-76
2023/03/20 01:31:18;;;;;;;14.70;7.47;;;9.10;99.90;;;;;;5052139;28;20194;-75
2023/03/20 01:33:45;;;;;;;12.40;7.10;;;9.20;99.90;;;;;;5052158;28;20269;-75
2023/03/20 01:36:12;;;;;;;11.40;7.27;;;9.20;99.90;;;;;;5052124;28;20515;-76
2023/03/20 01:38:39;;;;;;;11.43;7.17;;;9.20;99.90;;;;;;5052293;28;20239;-75
2023/03/20 01:41:15;;;;;;;16.23;7.77;;;9.30;99.90;;;;;;5051546;28;20184;-76
2023/03/20 01:43:44;;;;;;;15.10;8.07;;;9.10;99.90;;;;;;5051983;28;20195;-75
2023/03/20 01:46:30;;;;;;;19.30;7.87;;;9.30;99.90;;;;;;5051765;28;20164;-75
2023/03/20 01:49:28;;;;;;;13.70;7.90;;;9.20;99.90;;;;;;5051934;28;20166;-76
2023/03/20 01:51:56;;;;;;;18.07;8.13;;;9.40;99.90;;;;;;5028939;28;20680;-75
2023/03/20 01:54:24;;;;;;;13.87;8.40;;;9.30;99.90;;;;;;5050683;28;20168;-75
2023/03/20 01:57:06;;;;;;;15.80;8.57;;;9.10;99.90;;;;;;5051883;28;20241;-75
2023/03/20 01:59:43;;;;;;;15.73;7.87;;;9.20;99.90;;;;;;5050710;28;20173;-75
2023/03/20 02:02:11;;;;;;;15.97;8.00;;;9.20;99.90;;;;;;5051777;28;20152;-75
2023/03/20 02:04:41;;;;;;;14.17;8.00;;;9.20;99.90;;;;;;5051143;28;20199;-76
2023/03/20 02:07:09;;;;;;;19.00;8.17;;;9.10;99.90;;;;;;5055542;28;20174;-75
2023/03/20 02:09:35;;;;;;;15.03;9.13;;;9.00;99.90;;;;;;5055790;28;20659;-76
2023/03/20 02:12:02;;;;;;;15.17;8.87;;;9.00;99.90;;;;;;5055379;28;20148;-75
2023/03/20 02:14:30;;;;;;;17.00;8.40;;;8.80;99.90;;;;;;5055884;28;20251;-75
2023/03/20 02:16:55;;;;;;;13.93;7.80;;;8.70;99.90;;;;;;5055089;28;20176;-75
2023/03/20 02:19:35;;;;;;;14.50;8.53;;;8.50;99.90;;;;;;5054093;28;20250;-76
2023/03/20 02:22:19;;;;;;;14.93;8.13;;;8.30;99.90;;;;;;5053877;28;20168;-75
2023/03/20 02:25:19;;;;;;;17.97;8.43;;;8.40;99.90;;;;;;5055127;28;20257;-75
2023/03/20 02:28:03;;;;;;;17.53;7.53;;;8.50;99.90;;;;;;5053897;28;20168;-75
2023/03/20 02:30:30;;;;;;;22.83;7.97;;;8.60;99.90;;;;;;5055501;28;20159;-75
2023/03/20 02:33:35;;;;;;;17.43;8.37;;;8.50;99.90;;;;;;5053755;28;20176;-75
2023/03/20 02:36:22;;;;;;;15.80;7.90;;;8.50;99.90;;;;;;5055107;28;20171;-75
2023/03/20 02:38:56;;;;;;;18.50;8.57;;;8.50;99.90;;;;;;5053935;28;20627;-75
2023/03/20 02:41:31;;;;;;;17.03;7.77;;;8.40;99.90;;;;;;5055434;28;20752;-75
2023/03/20 02:44:15;;;;;;;17.00;8.47;;;8.60;99.90;;;;;;5053525;28;20679;-75
2023/03/20 02:47:36;;;;;;;20.07;7.93;;;8.70;99.90;;;;;;5054950;28;20170;-75
2023/03/20 02:50:13;;;;;;;21.63;8.60;;;8.50;99.90;;;;;;5012684;28;20524;-75
2023/03/20 02:52:51;;;;;;;22.80;9.53;;;8.30;99.90;;;;;;4996562;28;20168;-76
2023/03/20 02:55:39;;;;;;;19.23;8.97;;;8.50;99.90;;;;;;5030510;28;20266;-75
2023/03/20 02:58:25;;;;;;;18.77;8.77;;;8.40;99.90;;;;;;5054702;28;20168;-75
2023/03/20 03:01:09;;;;;;;23.67;9.53;;;8.40;99.90;;;;;;5054516;28;20239;-75
2023/03/20 03:03:41;;;;;;;18.10;9.17;;;8.40;99.90;;;;;;5053316;28;20202;-75
2023/03/20 03:06:21;;;;;;;21.30;9.20;;;8.40;99.90;;;;;;5054533;28;20156;-75
2023/03/20 03:08:53;;;;;;;21.60;9.03;;;8.30;99.90;;;;;;5054408;28;20207;-75
2023/03/20 03:11:19;;;;;;;17.93;9.00;;;8.30;99.90;;;;;;5054512;28;20617;-75
2023/03/20 03:13:49;;;;;;;21.60;9.10;;;8.20;99.90;;;;;;5054780;28;20176;-75
2023/03/20 03:16:25;;;;;;;23.57;9.50;;;8.30;99.90;;;;;;5053359;28;20625;-75
2023/03/20 03:19:06;;;;;;;21.10;8.60;;;8.40;99.90;;;;;;5054462;28;20168;-75
2023/03/20 03:21:34;;;;;;;23.77;9.23;;;8.20;99.90;;;;;;5054492;28;20301;-74
2023/03/20 03:24:00;;;;;;;18.80;8.90;;;8.30;99.90;;;;;;5054372;28;20282;-75
2023/03/20 03:26:31;;;;;;;20.93;9.43;;;8.00;99.90;;;;;;5054716;28;20192;-75
2023/03/20 03:29:00;;;;;;;25.00;10.00;;;8.00;99.90;;;;;;5054607;28;20168;-77
2023/03/20 03:31:28;;;;;;;22.80;10.37;;;8.10;99.90;;;;;;5054710;28;20590;-77
2023/03/20 03:33:57;;;;;;;24.47;9.43;;;8.00;99.90;;;;;;5053363;28;20218;-77
2023/03/20 03:36:58;;;;;;;20.10;9.57;;;8.10;99.90;;;;;;5053591;28;20204;-77
2023/03/20 03:39:41;;;;;;;21.77;9.20;;;8.10;99.90;;;;;;5054594;28;20203;-77
2023/03/20 03:42:21;;;;;;;24.93;9.50;;;8.20;99.90;;;;;;5053777;28;20252;-77
2023/03/20 03:45:07;;;;;;;27.47;9.83;;;8.20;99.90;;;;;;5053667;28;20199;-77
2023/03/20 03:47:40;;;;;;;21.90;8.27;;;8.10;99.90;;;;;;5053708;28;20179;-76
2023/03/20 03:50:17;;;;;;;17.73;8.53;;;8.30;99.90;;;;;;5052234;28;20185;-76
2023/03/20 03:52:45;;;;;;;22.57;8.87;;;8.30;99.90;;;;;;5052917;28;20672;-76
2023/03/20 03:55:17;;;;;;;25.93;8.13;;;8.10;99.90;;;;;;5053498;28;20179;-76
2023/03/20 03:57:58;;;;;;;20.47;8.07;;;8.20;99.90;;;;;;5053597;28;20160;-76
2023/03/20 04:00:26;;;;;;;22.40;9.30;;;8.30;99.90;;;;;;5053503;28;20168;-76
2023/03/20 04:02:54;;;;;;;21.70;7.90;;;8.20;99.90;;;;;;5053606;28;20160;-77
2023/03/20 04:05:21;;;;;;;19.27;8.33;;;8.10;99.90;;;;;;5051851;28;20625;-76
2023/03/20 04:07:53;;;;;;;19.20;8.40;;;8.10;99.90;;;;;;5053376;28;20178;-76
2023/03/20 04:10:19;;;;;;;20.63;8.27;;;8.40;99.90;;;;;;5052012;28;20639;-77
2023/03/20 04:12:45;;;;;;;17.33;7.80;;;8.50;99.90;;;;;;5053389;28;20195;-77
2023/03/20 04:15:12;;;;;;;15.87;7.50;;;8.30;99.90;;;;;;5053105;28;20156;-76
2023/03/20 04:17:38;;;;;;;19.13;7.80;;;8.30;99.90;;;;;;5051960;28;20225;-76
2023/03/20 04:20:05;;;;;;;18.03;9.33;;;8.50;99.90;;;;;;5051694;28;20535;-77
2023/03/20 04:22:33;;;;;;;19.10;7.77;;;8.70;99.90;;;;;;5052927;28;20172;-77
2023/03/20 04:25:02;;;;;;;19.83;8.40;;;8.70;99.90;;;;;;5051601;28;20203;-77
2023/03/20 04:27:28;;;;;;;15.93;8.10;;;8.70;99.90;;;;;;5052824;28;20168;-77
2023/03/20 04:29:56;;;;;;;18.80;8.93;;;8.90;99.90;;;;;;5053087;28;20282;-76
2023/03/20 04:32:21;;;;;;;19.47;7.83;;;8.70;99.90;;;;;;5051825;28;20174;-76
2023/03/20 04:34:47;;;;;;;18.37;7.80;;;8.80;99.90;;;;;;5051544;28;20228;-76
2023/03/20 04:37:14;;;;;;;14.57;7.43;;;8.30;99.90;;;;;;5052860;28;20175;-77
2023/03/20 04:39:41;;;;;;;15.60;7.80;;;8.10;99.90;;;;;;5052955;28;20175;-77
2023/03/20 04:42:07;;;;;;;17.33;8.30;;;8.10;99.90;;;;;;5051612;28;20176;-76
2023/03/20 04:44:33;;;;;;;17.80;6.87;;;8.20;99.90;;;;;;5052976;28;20187;-77
2023/03/20 04:46:59;;;;;;;16.37;7.13;;;8.30;99.90;;;;;;5052645;28;20563;-76
2023/03/20 04:49:25;;;;;;;21.17;7.43;;;8.30;99.90;;;;;;5052661;28;20198;-76
2023/03/20 04:51:51;;;;;;;15.00;7.37;;;8.30;99.90;;;;;;5051470;28;20596;-76
2023/03/20 04:54:17;;;;;;;16.20;7.13;;;8.10;99.90;;;;;;5051643;28;20214;-76
2023/03/20 04:56:43;;;;;;;20.47;7.57;;;8.30;99.90;;;;;;5052695;28;20244;-76
2023/03/20 04:59:08;;;;;;;16.63;6.87;;;8.10;99.90;;;;;;5052675;28;20172;-76
2023/03/20 05:01:35;;;;;;;14.87;6.07;;;8.30;99.90;;;;;;5052356;28;20165;-76
2023/03/20 05:04:00;;;;;;;18.90;7.40;;;8.40;99.90;;;;;;5051140;28;20210;-76
2023/03/20 05:06:29;;;;;;;19.20;7.33;;;8.30;99.90;;;;;;5052825;28;20159;-77
2023/03/20 05:08:54;;;;;;;20.67;7.00;;;8.10;99.90;;;;;;5051206;28;20192;-76
2023/03/20 05:11:20;;;;;;;19.57;6.87;;;8.30;99.90;;;;;;5052326;28;20577;-76
2023/03/20 05:13:45;;;;;;;14.23;6.77;;;8.40;99.90;;;;;;5052495;28;20174;-74
2023/03/20 05:16:11;;;;;;;15.90;6.47;;;8.20;99.90;;;;;;5052315;28;20199;-75
2023/03/20 05:18:37;;;;;;;15.47;5.87;;;7.90;99.90;;;;;;5052216;28;20560;-74
2023/03/20 05:21:03;;;;;;;12.60;5.90;;;7.70;99.90;;;;;;5052145;28;20389;-75
2023/03/20 05:23:29;;;;;;;22.23;7.60;;;7.80;99.90;;;;;;5052279;28;20234;-75
2023/03/20 05:25:55;;;;;;;23.17;9.17;;;8.10;99.90;;;;;;5050877;28;20178;-74
2023/03/20 05:28:22;;;;;;;21.60;10.03;;;8.20;99.90;;;;;;5050915;28;20181;-75
2023/03/20 05:30:47;;;;;;;20.60;7.13;;;8.10;99.90;;;;;;5050946;28;20543;-75
2023/03/20 05:33:13;;;;;;;16.10;7.73;;;8.30;99.90;;;;;;5050645;28;20160;-74
2023/03/20 05:35:40;;;;;;;12.73;6.17;;;8.30;99.90;;;;;;5050940;28;20179;-75
2023/03/20 05:38:05;;;;;;;16.63;6.00;;;8.20;99.90;;;;;;5050777;28;20653;-75
2023/03/20 05:40:31;;;;;;;12.57;5.67;;;8.00;99.90;;;;;;5054169;28;20191;-75
2023/03/20 05:42:57;;;;;;;17.07;6.23;;;8.00;99.90;;;;;;5054718;28;20286;-75
2023/03/20 05:45:24;;;;;;;14.73;5.47;;;8.20;99.90;;;;;;5056089;28;20233;-75
2023/03/20 05:47:49;;;;;;;14.53;5.17;;;8.30;99.90;;;;;;5055806;28;20172;-75
2023/03/20 05:50:15;;;;;;;19.03;5.90;;;8.00;99.90;;;;;;5056234;28;20160;-76
2023/03/20 05:52:41;;;;;;;14.77;4.97;;;7.70;99.90;;;;;;5054806;28;20167;-76
2023/03/20 05:55:07;;;;;;;20.47;5.43;;;7.70;99.90;;;;;;5055094;28;20274;-76
2023/03/20 05:57:32;;;;;;;17.67;6.50;;;7.70;99.90;;;;;;5055135;28;20183;-75
2023/03/20 05:59:58;;;;;;;15.27;5.47;;;7.90;99.90;;;;;;5054402;28;20616;-75
2023/03/20 06:02:23;;;;;;;13.30;5.50;;;8.00;99.90;;;;;;5055692;28;20172;-77
2023/03/20 06:04:49;;;;;;;12.37;4.97;;;7.90;99.90;;;;;;5055912;28;20184;-75
2023/03/20 06:07:15;;;;;;;10.60;5.13;;;7.90;99.90;;;;;;5055668;28;20342;-75
2023/03/20 06:09:41;;;;;;;13.27;5.73;;;7.80;99.90;;;;;;5055766;28;20608;-75
2023/03/20 06:12:08;;;;;;;19.30;4.83;;;7.80;99.90;;;;;;5055881;28;20222;-76
2023/03/20 06:14:33;;;;;;;14.13;5.53;;;7.80;99.90;;;;;;5055880;28;20171;-76
2023/03/20 06:16:59;;;;;;;14.33;5.63;;;7.80;99.90;;;;;;5054356;28;20255;-75
2023/03/20 06:19:25;;;;;;;18.37;5.40;;;7.90;99.90;;;;;;5054361;28;20178;-75
2023/03/20 06:21:51;;;;;;;16.37;5.40;;;8.00;99.90;;;;;;5055462;28;20164;-75
2023/03/20 06:24:17;;;;;;;11.00;4.70;;;8.00;99.90;;;;;;5054183;28;20203;-75
2023/03/20 06:26:43;;;;;;;13.83;5.13;;;8.10;99.90;;;;;;5054230;28;20198;-74
2023/03/20 06:29:08;;;;;;;11.40;4.63;;;8.20;99.90;;;;;;5053643;28;20578;-76
2023/03/20 06:31:35;;;;;;;15.17;6.33;;;8.20;99.90;;;;;;5066677;28;20198;-75
2023/03/20 06:34:02;;;;;;;11.77;4.40;;;8.20;99.90;;;;;;5075349;28;20557;-75
2023/03/20 06:36:28;;;;;;;13.83;5.10;;;8.00;99.90;;;;;;5074236;28;21019;-75
2023/03/20 06:38:55;;;;;;;16.60;5.30;;;7.80;99.90;;;;;;5074187;28;20168;-75
2023/03/20 06:41:24;;;;;;;12.60;3.77;;;7.70;99.90;;;;;;5074020;28;20198;-77
2023/03/20 06:43:50;;;;;;;10.87;5.27;;;7.70;99.90;;;;;;5075286;28;20183;-75
2023/03/20 06:46:17;;;;;;;8.40;4.07;;;7.90;99.90;;;;;;5073895;28;20166;-76
2023/03/20 06:48:58;;;;;;;16.43;5.10;;;8.00;99.90;;;;;;5073894;28;20167;-75
2023/03/20 06:51:28;;;;;;;12.90;4.30;;;8.00;99.90;;;;;;5073564;28;20194;-75
2023/03/20 06:53:54;;;;;;;13.50;4.60;;;8.10;99.90;;;;;;5061112;28;20190;-74
2023/03/20 06:56:20;;;;;;;13.50;4.57;;;8.10;99.90;;;;;;5047891;28;20183;-76
2023/03/20 06:58:49;;;;;;;11.97;3.90;;;8.10;99.90;;;;;;5054319;28;20547;-78
2023/03/20 07:01:19;;;;;;;16.17;4.43;;;8.20;99.90;;;;;;5060811;28;20222;-76
2023/03/20 07:03:45;;;;;;;16.60;4.23;;;8.30;99.90;;;;;;5058682;28;20192;-76
2023/03/20 07:06:12;;;;;;;9.17;4.87;;;8.40;99.90;;;;;;5059708;28;20168;-79
2023/03/20 07:08:52;;;;;;;16.00;4.70;;;8.50;99.90;;;;;;5054734;28;20172;-77
2023/03/20 07:11:19;;;;;;;11.63;3.63;;;8.60;99.90;;;;;;5056954;28;20629;-78
2023/03/20 07:13:53;;;;;;;14.23;3.60;;;8.30;99.90;;;;;;5053175;28;20187;-77
2023/03/20 07:16:28;;;;;;;13.80;3.83;;;8.00;99.90;;;;;;5053155;28;20164;-78
2023/03/20 07:19:14;;;;;;;10.77;3.23;;;7.90;99.90;;;;;;5054620;28;20229;-77
2023/03/20 07:21:40;;;;;;;13.43;3.50;;;8.20;99.90;;;;;;5053162;28;20179;-78
2023/03/20 07:24:06;;;;;;;10.60;3.73;;;8.10;99.90;;;;;;5050881;28;20671;-78
2023/03/20 07:26:31;;;;;;;11.47;3.90;;;8.10;99.90;;;;;;5052262;28;20254;-77
2023/03/20 07:28:59;;;;;;;14.63;3.60;;;8.00;99.90;;;;;;5052151;28;20164;-77
2023/03/20 07:31:28;;;;;;;11.63;3.03;;;7.90;99.90;;;;;;5052997;28;20171;-77
2023/03/20 07:33:53;;;;;;;8.93;3.53;;;7.90;99.90;;;;;;5050980;28;21544;-77
2023/03/20 07:36:20;;;;;;;15.27;4.00;;;8.10;99.90;;;;;;5051894;28;20274;-77
2023/03/20 07:38:45;;;;;;;13.33;3.37;;;8.10;99.90;;;;;;5050312;28;20326;-78
2023/03/20 07:41:11;;;;;;;11.30;3.37;;;8.20;99.90;;;;;;5053998;28;20658;-78
2023/03/20 07:43:37;;;;;;;21.60;4.30;;;8.40;99.90;;;;;;5052114;28;20326;-77
2023/03/20 07:46:04;;;;;;;14.57;3.40;;;8.70;99.90;;;;;;5052284;28;20171;-77
2023/03/20 07:48:31;;;;;;;12.73;3.60;;;8.70;99.90;;;;;;5051589;28;20168;-78
2023/03/20 07:50:57;;;;;;;17.87;4.33;;;8.70;99.90;;;;;;5051883;28;20437;-77
2023/03/20 07:53:23;;;;;;;8.23;3.10;;;8.90;99.90;;;;;;5052375;28;20596;-78
2023/03/20 07:55:49;;;;;;;14.70;5.03;;;8.80;99.90;;;;;;5052196;28;20258;-78
2023/03/20 07:58:15;;;;;;;9.40;3.60;;;8.70;99.90;;;;;;5053394;28;20253;-78
2023/03/20 08:00:41;;;;;;;14.20;3.13;;;8.60;99.90;;;;;;5052354;28;20175;-79
2023/03/20 08:03:08;;;;;;;11.13;3.23;;;8.80;99.90;;;;;;5052948;28;20160;-78
2023/03/20 08:05:34;;;;;;;10.67;3.23;;;8.80;99.90;;;;;;5049570;28;20171;-78
2023/03/20 08:08:01;;;;;;;11.83;3.53;;;8.90;99.90;;;;;;5043104;28;20168;-77
2023/03/20 08:10:29;;;;;;;9.73;2.87;;;8.70;99.90;;;;;;5046585;28;20176;-77
2023/03/20 08:12:55;;;;;;;14.07;3.67;;;8.70;99.90;;;;;;5052263;28;20570;-78
2023/03/20 08:15:21;;;;;;;12.83;3.13;;;8.70;99.90;;;;;;5056315;28;20173;-78
2023/03/20 08:17:47;;;;;;;9.40;2.80;;;8.60;99.90;;;;;;5071291;28;20224;-78
2023/03/20 08:20:16;;;;;;;11.27;3.17;;;8.60;99.90;;;;;;5053393;28;20144;-78
2023/03/20 08:22:44;;;;;;;9.83;3.90;;;8.50;99.90;;;;;;5053108;28;20620;-78
2023/03/20 08:25:10;;;;;;;8.40;2.90;;;8.70;99.90;;;;;;5055928;28;20179;-78
2023/03/20 08:27:40;;;;;;;10.50;3.20;;;8.80;99.90;;;;;;5070792;28;20171;-79
2023/03/20 08:30:09;;;;;;;11.23;3.37;;;9.00;99.90;;;;;;5051291;28;20215;-77
2023/03/20 08:32:37;;;;;;;12.33;3.63;;;9.10;99.90;;;;;;5053242;28;20150;-77
2023/03/20 08:35:08;;;;;;;13.17;3.17;;;9.40;99.90;;;;;;5055418;28;20735;-77
2023/03/20 08:37:36;;;;;;;9.20;3.40;;;9.30;99.90;;;;;;5042346;28;20175;-77
2023/03/20 08:40:03;;;;;;;11.63;3.97;;;9.50;99.90;;;;;;5049067;28;20196;-77
2023/03/20 08:42:28;;;;;;;15.97;4.07;;;9.60;99.90;;;;;;5050996;28;20157;-77
2023/03/20 08:44:54;;;;;;;15.23;4.17;;;9.60;99.90;;;;;;5052055;28;20191;-77
2023/03/20 08:47:21;;;;;;;12.43;3.73;;;9.80;99.90;;;;;;5059021;28;20179;-77
2023/03/20 08:49:46;;;;;;;10.07;3.50;;;9.90;99.90;;;;;;5048114;28;20176;-78
2023/03/20 08:52:13;;;;;;;12.97;4.13;;;9.80;99.90;;;;;;5050196;28;20187;-78
2023/03/20 08:54:39;;;;;;;13.20;4.00;;;10.00;99.90;;;;;;5047427;28;20505;-77
2023/03/20 08:57:05;;;;;;;8.53;3.27;;;10.10;99.90;;;;;;5044940;28;20241;-77
2023/03/20 08:59:34;;;;;;;10.97;3.33;;;10.10;99.90;;;;;;5037339;28;20317;-77
2023/03/20 09:02:02;;;;;;;15.87;4.17;;;9.50;99.90;;;;;;5050719;28;20629;-77
2023/03/20 09:04:27;;;;;;;16.13;3.90;;;9.30;99.90;;;;;;5051145;28;20731;-78
2023/03/20 09:06:53;;;;;;;18.83;3.70;;;9.30;99.90;;;;;;5048279;28;20278;-78
2023/03/20 09:09:25;;;;;;;14.33;4.10;;;9.50;99.90;;;;;;5050957;28;20305;-78
2023/03/20 09:11:50;;;;;;;9.13;3.00;;;9.60;99.90;;;;;;5048464;28;20180;-78
2023/03/20 09:14:16;;;;;;;15.47;4.23;;;9.60;99.90;;;;;;5050984;28;20176;-78
2023/03/20 09:16:42;;;;;;;8.67;3.40;;;9.40;99.90;;;;;;5054594;28;20540;-77
2023/03/20 09:19:08;;;;;;;13.83;3.47;;;9.30;99.90;;;;;;5055210;28;20159;-78
2023/03/20 09:21:33;;;;;;;12.73;3.73;;;9.20;99.90;;;;;;5053249;28;20172;-77
2023/03/20 09:24:00;;;;;;;13.63;3.47;;;9.30;99.90;;;;;;5054256;28;20210;-78
2023/03/20 09:26:25;;;;;;;13.97;4.30;;;9.50;99.90;;;;;;5063483;28;20183;-78
2023/03/20 09:28:51;;;;;;;8.80;3.13;;;9.40;99.90;;;;;;5056249;28;20206;-77
2023/03/20 09:31:17;;;;;;;8.50;3.60;;;9.40;99.90;;;;;;5053521;28;20254;-79
2023/03/20 09:33:42;;;;;;;12.87;3.37;;;9.40;99.90;;;;;;5056222;28;20237;-78
2023/03/20 09:36:10;;;;;;;10.10;3.70;;;9.70;99.90;;;;;;5054217;28;20214;-78
2023/03/20 09:38:36;;;;;;;13.30;3.67;;;9.60;99.90;;;;;;5054938;28;20518;-78
2023/03/20 09:41:03;;;;;;;12.00;3.63;;;9.70;99.90;;;;;;5052237;28;20507;-78
2023/03/20 09:43:47;;;;;;;15.20;3.87;;;9.90;99.90;;;;;;5052754;28;20249;-77
2023/03/20 09:46:40;;;;;;;12.60;3.60;;;9.90;99.90;;;;;;5054013;28;20570;-77
2023/03/20 09:49:36;;;;;;;10.07;3.60;;;9.60;99.90;;;;;;5054957;28;20519;-78
2023/03/20 09:52:25;;;;;;;15.37;4.30;;;9.40;99.90;;;;;;5054391;28;20740;-77
2023/03/20 09:54:55;;;;;;;19.33;3.73;;;9.70;99.90;;;;;;5052877;28;20295;-77
2023/03/20 09:57:27;;;;;;;10.53;3.80;;;10.00;99.90;;;;;;5054727;28;20261;-77
2023/03/20 10:00:07;;;;;;;14.13;4.70;;;10.20;99.90;;;;;;5055806;28;20533;-77
2023/03/20 10:02:47;;;;;;;12.73;3.80;;;10.40;99.90;;;;;;5034775;28;20528;-78
2023/03/20 10:05:42;;;;;;;10.07;3.40;;;10.70;99.90;;;;;;5042598;28;20661;-77
2023/03/20 10:08:15;;;;;;;9.10;2.90;;;10.80;99.90;;;;;;5041308;28;20636;-77
2023/03/20 10:11:05;;;;;;;11.53;3.93;;;10.40;99.90;;;;;;5053691;28;20184;-77
2023/03/20 10:13:37;;;;;;;12.87;3.70;;;10.40;99.90;;;;;;5053688;28;20205;-78
2023/03/20 10:16:21;;;;;;;12.83;4.07;;;10.80;99.90;;;;;;5051748;28;20185;-79
2023/03/20 10:19:06;;;;;;;17.50;3.90;;;11.00;99.90;;;;;;5055494;28;20538;-77
2023/03/20 10:22:24;;;;;;;12.17;3.17;;;11.00;99.90;;;;;;5054130;28;20175;-77
2023/03/20 10:25:22;;;;;;;10.90;3.77;;;10.70;99.90;;;;;;5049758;28;20294;-76
2023/03/20 10:27:51;;;;;;;13.07;3.57;;;10.50;99.90;;;;;;5050203;28;20592;-77
2023/03/20 10:30:32;;;;;;;13.87;3.63;;;10.80;99.90;;;;;;5051796;28;20625;-79
2023/03/20 10:33:25;;;;;;;9.03;3.40;;;10.60;99.90;;;;;;5052401;28;20651;-77
2023/03/20 10:36:12;;;;;;;12.77;3.23;;;10.90;99.90;;;;;;5053970;28;20168;-76
2023/03/20 10:38:58;;;;;;;11.83;3.70;;;11.00;99.90;;;;;;5033909;28;20637;-77
2023/03/20 10:41:36;;;;;;;13.70;4.00;;;11.20;99.90;;;;;;5049581;28;20198;-78
2023/03/20 10:44:03;;;;;;;11.27;3.20;;;11.40;99.90;;;;;;5053539;28;20214;-76
2023/03/20 10:46:33;;;;;;;13.37;3.57;;;11.50;99.90;;;;;;5047798;28;20201;-78
2023/03/20 10:49:01;;;;;;;11.17;3.10;;;11.30;99.90;;;;;;5036774;28;20178;-79
2023/03/20 10:51:51;;;;;;;14.80;3.67;;;11.20;99.90;;;;;;5053785;28;20660;-77
2023/03/20 10:54:26;;;;;;;11.57;3.23;;;11.60;99.90;;;;;;5052958;28;20186;-77
2023/03/20 10:56:55;;;;;;;8.33;3.00;;;11.80;99.90;;;;;;5053290;28;20235;-77
2023/03/20 10:59:43;;;;;;;9.63;2.60;;;12.00;99.90;;;;;;5051801;28;20645;-78
2023/03/20 11:02:11;;;;;;;10.03;2.90;;;11.90;99.90;;;;;;5053761;28;20173;-79
2023/03/20 11:04:37;;;;;;;14.03;3.20;;;12.10;99.90;;;;;;5049807;28;20199;-79
2023/03/20 11:07:17;;;;;;;13.10;2.73;;;12.00;99.90;;;;;;5053720;28;20209;-80
2023/03/20 11:09:43;;;;;;;14.67;3.10;;;11.90;99.90;;;;;;5054997;28;20555;-79
2023/03/20 11:12:18;;;;;;;11.37;3.47;;;11.90;99.90;;;;;;5055985;28;20165;-79
2023/03/20 11:14:45;;;;;;;11.07;2.93;;;11.70;99.90;;;;;;5052035;28;20171;-79
2023/03/20 11:17:12;;;;;;;11.23;2.63;;;11.80;99.90;;;;;;5051488;28;20165;-79
2023/03/20 11:19:40;;;;;;;9.00;2.90;;;12.00;99.90;;;;;;5052957;28;20238;-78
2023/03/20 11:22:20;;;;;;;10.90;3.30;;;12.10;99.90;;;;;;5053227;28;20165;-80
2023/03/20 11:24:50;;;;;;;10.77;3.00;;;12.40;99.90;;;;;;5053405;28;20213;-80
2023/03/20 11:27:25;;;;;;;11.23;2.97;;;12.40;99.90;;;;;;5053654;28;20222;-79
2023/03/20 11:29:52;;;;;;;7.77;3.10;;;12.80;99.90;;;;;;5054738;28;20170;-78
2023/03/20 11:32:34;;;;;;;11.60;3.23;;;12.90;99.90;;;;;;5052513;28;20201;-78
2023/03/20 11:35:21;;;;;;;10.57;3.27;;;13.00;99.90;;;;;;5054978;28;20158;-80
2023/03/20 11:37:49;;;;;;;12.20;3.83;;;13.30;99.90;;;;;;5053220;28;20168;-78
2023/03/20 11:40:16;;;;;;;14.47;3.50;;;12.90;99.90;;;;;;5052240;28;20190;-78
2023/03/20 11:42:52;;;;;;;10.17;3.10;;;12.80;99.90;;;;;;5053270;28;20182;-80
2023/03/20 11:45:18;;;;;;;10.90;3.30;;;12.70;99.90;;;;;;5034365;28;20212;-79
2023/03/20 11:47:51;;;;;;;8.93;3.13;;;13.00;99.90;;;;;;5052972;28;20586;-79
2023/03/20 11:50:35;;;;;;;10.70;3.17;;;13.10;99.90;;;;;;5052797;28;20181;-78
2023/03/20 11:53:19;;;;;;;11.30;3.13;;;13.30;99.90;;;;;;5053446;28;20171;-80
2023/03/20 11:56:01;;;;;;;9.13;3.30;;;13.30;99.90;;;;;;5052859;28;20171;-80
2023/03/20 11:58:28;;;;;;;13.13;3.03;;;13.20;99.90;;;;;;5052740;28;20648;-79
2023/03/20 12:00:55;;;;;;;8.53;3.03;;;13.10;99.90;;;;;;5051019;28;20183;-78
2023/03/20 12:03:45;;;;;;;11.33;2.80;;;13.40;99.90;;;;;;5052054;28;20282;-79
2023/03/20 12:06:17;;;;;;;10.87;3.30;;;13.10;99.90;;;;;;5052727;28;20164;-79
2023/03/20 12:09:06;;;;;;;9.23;2.40;;;13.50;99.90;;;;;;5052830;28;20171;-80
2023/03/20 12:11:47;;;;;;;11.33;3.37;;;13.60;99.90;;;;;;5046788;28;20214;-79
2023/03/20 12:14:24;;;;;;;12.03;2.80;;;14.10;99.90;;;;;;5052973;28;20211;-79
2023/03/20 12:16:55;;;;;;;15.27;3.70;;;14.50;99.90;;;;;;5053598;28;20173;-78
2023/03/20 12:19:26;;;;;;;10.43;3.17;;;15.00;99.90;;;;;;5051653;28;20675;-80
2023/03/20 12:22:13;;;;;;;8.17;2.87;;;15.10;99.90;;;;;;5051183;28;20203;-79
2023/03/20 12:25:12;;;;;;;14.70;3.80;;;14.20;99.90;;;;;;5050917;28;20990;-80
2023/03/20 12:28:05;;;;;;;12.13;3.97;;;13.90;99.90;;;;;;5037728;28;20200;-78
2023/03/20 12:30:56;;;;;;;13.27;3.40;;;14.00;99.90;;;;;;5023447;28;20257;-78
2023/03/20 12:33:35;;;;;;;11.43;3.60;;;14.20;99.90;;;;;;5032117;28;20173;-78
2023/03/20 12:36:03;;;;;;;10.50;3.50;;;14.10;99.90;;;;;;5043230;28;20190;-78
2023/03/20 12:38:31;;;;;;;10.30;3.63;;;13.90;99.90;;;;;;5053764;28;20178;-78
2023/03/20 12:41:10;;;;;;;18.87;4.07;;;14.20;99.90;;;;;;5050838;28;20194;-78
2023/03/20 12:44:09;;;;;;;12.37;3.60;;;14.60;99.90;;;;;;5053528;28;20548;-78
2023/03/20 12:47:06;;;;;;;18.97;3.77;;;14.90;99.90;;;;;;5018110;28;20714;-79
2023/03/20 12:49:58;;;;;;;11.30;3.40;;;14.50;99.90;;;;;;5051425;28;20199;-78
2023/03/20 12:52:36;;;;;;;9.33;3.73;;;14.40;99.90;;;;;;5035965;28;20210;-78
2023/03/20 12:55:17;;;;;;;13.27;3.43;;;14.60;99.90;;;;;;5031868;28;20544;-78
2023/03/20 12:58:00;;;;;;;15.90;4.43;;;15.00;99.90;;;;;;5032561;28;20200;-79
2023/03/20 13:00:55;;;;;;;12.00;3.97;;;15.20;99.90;;;;;;5039224;28;20182;-79
2023/03/20 13:04:15;;;;;;;12.53;3.70;;;14.50;99.90;;;;;;5032150;28;20193;-77
2023/03/20 13:06:58;;;;;;;11.77;4.20;;;14.40;99.90;;;;;;4991954;28;20613;-78
2023/03/20 13:09:27;;;;;;;11.13;4.50;;;13.80;99.90;;;;;;5050333;28;20676;-78
2023/03/20 13:12:34;;;;;;;11.03;4.40;;;13.80;99.90;;;;;;5052071;28;20759;-80